Preisvergleich
Suchen Sie bei den großen Preisvergleich Portalen gleichzeitig! 


Sitemap47

6.9.2026 2:03

In den Sitemaps finden Sie im Meta-Preisvergleich häufig gefragte Suchworte sortiert nach der Anzahl der Anfragen.

Anfragen Suchwort Ergebnisse Datum Quellen
3darkglass kaamos252026-08-13 00:07:0128
3sram xg-1275 eagle 12-fach black 10-52t82026-09-01 00:07:0129
3rowenta x-force flex 13.60 allergy rh9a36212026-08-23 00:07:0127
3unger tr150142026-09-02 00:07:0128
3venus d marstek3162026-08-25 00:07:0128
3oneplus 12 256gb3622026-08-11 00:07:0129
3chicago next 4 r turbo172026-08-08 00:07:0128
3metabo 600856850392026-08-10 00:07:0129
3pentax ed fernglas612026-08-24 00:07:0129
3lithofin fleckstop w, 1 l142026-08-06 00:07:0128
3sungrow ihome manager102026-08-17 00:07:0227
3vivo x300 fe1492026-08-09 00:07:0129
3jbl bar 1000 mk2282026-08-29 00:07:0129
3sakret bwb132026-08-15 00:07:0125
3osram night breaker h4 4502062026-08-05 00:07:0128
3bss71125ah212026-08-27 00:07:0126
3samsung galaxy s26 512 gb black dual sim642026-07-31 00:07:0129
3okimat 2sl92026-08-02 00:07:0127
3siena garden silva 100 x 180242026-08-12 00:07:0125
3ssd 2gb extern82026-08-03 00:07:0128
3427100430142026-09-02 00:07:0128
3h07bq-f 3g4142026-08-15 00:07:0129
3oled77c57la112026-07-29 00:07:0127
3samsung galaxy s25 fe 256 gb ohne simlock272026-08-26 00:07:0128
3meindl terlan gtx herren 4592026-08-01 00:07:0129
3skytraxx 5 mini172026-09-04 00:07:0129
3rowenta x force flex 13.60 allergy rh9a36162026-08-01 00:07:0129
3te-sv 18 270 li bl-solo332026-08-31 00:07:0126
39820469122026-08-09 00:07:0127
3hp 17-cp2652ng112026-08-10 00:07:0129
3dolci becher122026-08-10 00:07:0125
3gigabyte ai top atom dgx spark452026-08-05 00:07:0126
3xiaomi 50w wireless charging stand pro112026-09-04 00:07:0127
3aune ar5000212026-07-31 00:07:0129
3apple iphone x 256gb silver refurbished152026-08-23 00:07:0129
3bodenfräse kat342026-09-05 00:07:0129
3band of horses things are great732026-09-06 00:07:0128
3midea porta split 120001072026-08-01 00:07:0129
3trek allant 9222026-08-19 00:07:0226
3solis s6-eh3p20k-h422026-08-07 00:07:0126
3pferd cc grind view402026-07-30 00:07:0116
3oled77c54la202026-08-01 00:07:0128
3wharfedale evo 4.s152026-08-09 00:07:0128
3lpf-r432-weu82026-08-29 00:07:0129
3rotak 44-750372026-08-19 00:07:0227
3portables ekg92026-08-06 00:07:0129
35 kg propangasflasche grau622026-09-01 00:07:0129
3xiaomi poco x8 pro max 512gb712026-09-01 00:07:0129
3philips megabasket642026-08-28 00:07:0127
3jura 24233 claris smart 3er set filterpatrone482026-08-24 00:07:0129
3google pixel 112112026-08-13 00:07:0128
3bose quietcomfort ultra bluetooth-kopfhörer 2. gen.182026-08-14 00:07:0229
3dell s2725dsm552026-08-19 00:07:0225
3deuter herren trans alpine 24 fahrradrucksack242026-09-05 00:07:0129
3teufel receiver mk2392026-08-04 00:07:0128
352-b1650s632026-08-08 00:07:0125
3lego 210661262026-08-08 00:07:0127
3abus smartvest pro steckdose282026-08-03 00:07:0129
3sofabaton u3162026-08-20 00:07:0127
3hoymiles hibattery 4020 ac212026-08-17 00:07:0229
3lego 75810 neu ovp482026-08-20 00:07:0126
3lego 10335 neu ovp192026-08-22 00:07:0129
36r1941039d122026-08-23 00:07:0127
3cherry stream desktop weiß1112026-08-22 00:07:0127
3vliesfilterbeutel kfi 4871052026-09-06 00:07:0128
3bm005926112026-08-14 00:07:0228
3asics gel venture 11 schuhe schuhe herren2812026-08-21 00:07:0129
3fritz set 42001442026-08-22 00:07:0129
3x2d combo bambu352026-08-28 00:07:0129
319436355262026-09-02 00:07:0128
3jordan 3 lucky shorts 4792026-08-22 00:07:0129
3inateck pro 170b122026-08-19 00:07:0229
3hoka mafate speed 5422026-08-25 00:07:0125
3unifi usw-lite-16-poe522026-08-04 00:07:0129
3noctua nf-a4x20 pwm752026-09-01 00:07:0129
3draytek vigor 166 gen2132026-08-25 00:07:0127
38ld 366 033-34192026-08-29 00:07:0129
3laowa 180mm nikon192026-08-23 00:07:0128
3s95f 77182026-08-01 00:07:0128
3lego 115051282026-08-23 00:07:0126
3dangbei s7 ultra max112026-09-03 00:07:0126
3severin gb 8880222026-08-20 00:07:0129
3meaco sefte 10 standventilator82026-08-06 00:07:0129
3duesenberg gitarrengurt132026-09-05 00:07:0126
3samsung gmr85r95hatxzg92026-08-05 00:07:0127
3dreo smart turmventilator142026-08-12 00:07:0129
3mijia smart standing fan pro slim82026-08-05 00:07:0129
3psi avaa c214242026-08-29 00:07:0129
3mspa rova662026-08-08 00:07:0128
3heizlüfter rhl492026-08-12 00:07:0129
3pm 10 ekg122026-08-01 00:07:0125
3rommelsbacher mrk 650292026-08-30 00:07:0129
3dab divertron 900 m392026-08-13 00:07:0125
3697732112808692026-08-12 00:07:0124
3bree free red192026-08-01 00:07:0128
3e 5 benzin3172026-09-02 00:07:0127
3alpenkraft bio immun422026-08-23 00:07:0127
3switchbot standventilator102026-08-28 00:07:0127
3lego 910059 neu ovp122026-08-25 00:07:0129
3dreo 765s152026-08-08 00:07:0127
3dyson v16 piston animal mit spezialreinigungsset102026-08-02 00:07:0128
3faller 140460462026-08-10 00:07:0126
3easymaxx insect protect teleskop-insektenschutzgitter522026-09-05 00:07:0127
3chessnut evo182026-08-19 00:07:0225
3protoarc ec200112026-08-10 00:07:0128
3darkglass infinity552026-08-13 00:07:0127
3brostrend axe300082026-09-04 00:07:0128
3zte mc8810 hyperbox 5g lite352026-09-05 00:07:0126
3falken as 210 155-65 r 141002026-08-14 00:07:0228
3espresso ganze bohnen 1kg3892026-08-23 00:07:0129
3max fuchs hose2732026-07-30 00:07:0128
3pixel 116152026-08-13 00:07:0127
3philips pml9009232026-08-20 00:07:0128
3truma aventa compact plus 2g82026-08-28 00:07:0129
3px8 s2 blue422026-07-30 00:07:0129
3kieserblock 03c272026-08-27 00:07:0129
3gbbs726aev192026-08-05 00:07:0128
3absaugmobil ctm 36 ei1842026-07-29 00:07:0129
3lock lock hpl 807332026-08-01 00:07:0128
3navimow i215 lidar442026-08-14 00:07:0229
3x60 pro ultra complete582026-08-11 00:07:0125
3cw001g112026-08-10 00:07:0128
3eureka mignon zero 55s232026-07-29 00:07:0129
3eclipse tube602026-07-30 00:07:0128
3krups sandwichmaker fdk462252026-08-20 00:07:0127
34006325508425202026-08-01 00:07:0125
3peak design everyday sling 10l1082026-08-08 00:07:0129
3monoblock 12000402026-08-02 00:07:0130
3fenix9362026-08-14 00:07:0228
3iphone 17 pro 512gb neu2172026-07-29 00:07:0129
3rose 3d sattel332026-08-09 00:07:0127
3makita 18 v 12 ah2382026-07-29 00:07:0129
3braun 9615482026-07-29 00:07:0129
3dell latitude e7470 akku3202026-07-29 00:07:0129
3hp designjet t8501652026-07-29 00:07:0129
3kf concept rucksack552026-07-29 00:07:0129
315t pro 512gb1732026-07-31 00:07:0129
3grundfos sqe 3-105252026-07-29 00:07:0129
3satch pack mystic nights set742026-07-29 00:07:0129
3akku redroad v17272026-07-29 00:07:0129
3x55sw pro132026-08-14 00:07:0228
3katzenbaum plattform6182026-07-29 00:07:0129
3x8 pro max 512 gb852026-07-29 00:07:0129
3krups xn1101 nespresso essenza912026-07-29 00:07:0129
3wick zzzquil gute nacht melatonin weichgummis592026-07-29 00:07:0129
3liqui moly 20651 liqui moly lm profi longlife iii 5w-30 20651 1 l kanister kunst252026-07-29 00:07:0129
3iphone 11 100 akku1232026-07-29 00:07:0129
3iphone 13 100 akku1892026-07-29 00:07:0129
3eurobox 60 40 transparent1012026-07-29 00:07:0129
3solo by al-ko t 22-110.4 hdh-a v2142026-08-26 00:07:0123
3cricut autopress472026-07-29 00:07:0128
3schale 60 cm5662026-07-30 00:07:0128
3magnesium verla 400 direkt-granulat waldbeere602026-07-30 00:07:0129
3ohrpolster sennheiser pc 8 usb headset432026-07-30 00:07:0129
3bestway 427 x 250 x 1001222026-07-30 00:07:0128
3bluetti sora 500292026-08-31 00:07:0129
3probook 650 g5 tastatur1162026-07-30 00:07:0129
3stiga estate 598 w1202026-07-30 00:07:0129
3artdeco lippenstift 80312026-07-30 00:07:0129
3vw golf 8 tsi neu582026-07-30 00:07:0128
3vw golf 8 neu1942026-07-30 00:07:0129
3hp 912 xl schwarz2652026-07-30 00:07:0129
3peha soft nitrile s3002026-07-30 00:07:0129
3alpina hackney 51-56642026-07-30 00:07:0129
3goji getrocknet3792026-07-30 00:07:0129
3mb840m2p-b312026-08-07 00:07:0128
3kompass wanderführer kärntner seen342026-08-13 00:07:0129
3gefriertruhe 100 l752026-07-30 00:07:0129
3runfalcon 5 laufschuh8172026-07-30 00:07:0129
3emsa prep bake kunststoff-rührschüssel422026-07-30 00:07:0129
3akustikpaneele eiche 60x60772026-07-31 00:07:0129
3xp9404482026-08-02 00:07:0127
3samsung galaxy s26 256gb8092026-08-21 00:07:0128
3efalock professional tools692026-07-31 00:07:0129
3ixo8322026-08-01 00:07:0128
3bluetti 3003232026-07-31 00:07:0127
3geberit icon absenkautomatik2932026-07-31 00:07:0129
3somfy 9014400222026-08-26 00:07:0127
3hesselink ausdreher362026-07-31 00:07:0128
33x pc lüfter4652026-07-31 00:07:0128
3laifen wave pro1092026-07-31 00:07:0129
3fischer bolzenanker faz ii plus 10 107182026-08-26 00:07:0129
320 stück 10 liter kanister662026-07-31 00:07:0128
3jack jones jprsolaris blazer1542026-07-31 00:07:0128
3elmex sensitive plus sensitive892026-07-31 00:07:0129
3oukitel p1000 plus 1800w772026-07-31 00:07:0129
3bosch wgg244zeco292026-08-22 00:07:0125
3zigarettenanzünder auf xt602602026-08-01 00:07:0129
3handy mit leica kamera ohne vertrag212026-08-01 00:07:0129
3garmin fenix 8 47 mm solar1402026-08-02 00:07:0129
3webcam desktop4672026-08-01 00:07:0129
3allibert seifenspender242026-08-01 00:07:0129
3camel gürtel xl2182026-08-01 00:07:0129
3carsten 20cm982026-08-01 00:07:0129
3finetrack duo522026-08-15 00:07:0129
3innentür weiß zarge4062026-08-01 00:07:0129
3innentür weiß set1102026-08-01 00:07:0129
3leatt enduro 42022026-08-01 00:07:0128
3ladegerät für 36v e-bike akku6432026-08-01 00:07:0129
3anhänger 750 131962026-08-01 00:07:0129
3wasserkocher 5 temperaturstufen warmhaltefunktion732026-08-01 00:07:0129
3benfei displayport auf hdmi adapter aktiv192026-08-08 00:07:0128
3lindy 100w1062026-08-01 00:07:0129
3the hobbit collector booster display232026-08-02 00:07:0129
3billerbeck antigua372026-08-02 00:07:0128
33dconnexion cad mouse wireless pro212026-08-02 00:07:0129
3atera protector392026-08-02 00:07:0129
3fritz box cable 6660 router2972026-08-02 00:07:0129
anzahl 208 xml 208


Preisvergleich
Wichtige Information zu den Preisangaben: Alle Preise verstehen sich inklusive der gesetzlichen Mehrwertsteuer und gegebebenfalls zuzüglich Versandkosten. Zum Zeitpunkt des Kaufes ist der aktuell auf der Händlerseite angegebene Preis maßgeblich. Bitte beachten Sie, dass aus technischen Gründen zeitweise Abweichungen, des Preises, der Lieferbarkeit und der Versandkosten entstehen können.

Affiliate-Offenlegung: Wenn Sie auf dieser Website auf Links zu verschiedenen Händlern klicken und einen Kauf tätigen, kann dies dazu führen, dass diese Website eine Provision erhält. Zu den Partnerprogrammen und Partnerschaften gehört unter anderem das eBay Partner Network. Als Amazon-Partner verdienen wir an qualifizierten Verkäufen.

Diese Website verwendet Cookies und Dienste von Drittanbietern. Durch die Nutzung dieser Website erklären Sie sich damit einverstanden, dass wir Cookies verwenden und Daten an Drittanbieter weitergeben. Insbesondere geben Sie durch das Klicken auf externe Links Ihr Einverständnis, dass anonyme Affiliate-Tracking-Cookies verwendet werden.

Meta-Preisvergleich - Ihre intelligente Shopping-Plattform

Funktionen:
Preisvergleich - Produktvergleich - Shopbewertung - Gutscheine - Produktbilder

Themen:
Buch Preisvergleich - Musik Preisvergleich - Film Preisvergleich - Spiele Computerspiele - Medikamente - Ärzte - Optik und Kontaktlinsen - Krankenversicherung - Preisvergleich Reisen - Kreuzfahrt Preisvergleich - Flüge Preisvergleich - Mietwagen - Hotel Preisvergleich - Ferienhaus Mieten - Stromtarife - Versicherungen - Geldanlage - Finanzierung - Auto - Immobilien - Handy-Tarife - Internetzugang - Geschenke - Singlebörsen - KI-Chatbot

Erklärungen:
Preisvergleich Übersicht / Marktübersicht - Liste der Preisvergleich Quellen - Benutzerdefinierte Preisvergleich Quellen - Erklärungen zum Meta-Preisvergleich

Sitemaps:
1 - 2 - 3 - 4 - 5 - 6 - 7 - 8 - 9 - 10 - 11 - 12 - 13 - 14 - 15 - 16 - 17 - 18 - 19 - 20 - 21 - 22 - 23 - 24 - 25 - 26 - 27 - 28 - 29 - 30 - 31 - 32 - 33 - 34 - 35 - 36 - 37 - 38 - 39 - 40 - 41 - 42 - 43 - 44 - 45 - 46 - 47 - 48 - 49 - 50 - 51 - 52 - 53 - 54 - 55 - 56 - 57 - 58 - 59 - 60 - 61 - 62 - 63 - 64 - 65 - 66 - 67 - 68 - 69 - 70 - 71 - 72 - 73 - 74 - 75 - 76 - 77 - 78 - 79 - 80 - 81 - 82 - 83 - 84 - 85 - 86 - 87 - 88 - 89 - 90 - 91 - 92 - 93 - 94 - 95 - 96 - 97 - 98 - 99 - 100 -
Impressum / Datenschutzerklärung     Presse / Links / Logos    
Copyright © 2003-2026 MetaMind GmbH